Roeland Park, Kansas
Current Conditions -  °F | °C
As of 10:42 AM on Saturday 22 Nov 2014 (Local Time) from KMKC Reporting Station
Overcast Overcast  
Wind Chill: 58°   Ceiling: 1000
Heat Index: 58°   Visibility: 7mi
Dew Point: 54°   Wind: 15mph
Humidity: 87%   Direction: 200°SSW
Pressure: 29.93"   Gusts: 22mph
Location:  39.0312°N, 94.6315°W
Report Text: KMKC 221642Z 20013G19KT 7SM OVC010 14/12 A2993 RMK AO2 T01440122
Loading
Personal Weather Stations






























Interactive Weather Map New forecast layout! Learn more

10-Day Weather Forecast

Advertisements
Track Severe Weather on mobile